Time;durP1;ratioP1;P1;durP2;ratioP2;P2;SDS_P1;SDS_P2;PMS_P1;PMS_P2;Temp;Humidity;BMP_temperature;BMP_pressure;BME280_temperature;BME280_humidity;BME280_pressure;Samples;Min_cycle;Max_cycle;Signal;HPM_P1;HPM_P2
2023/04/19 00:00:52;;;;;;;15.38;9.93;;;10.90;80.90;;;14.04;50.57;98165.41;5060954;28;20048;-47
2023/04/19 00:03:23;;;;;;;14.03;9.57;;;10.80;81.10;;;14.03;50.67;98164.56;5062197;28;20048;-46
2023/04/19 00:05:53;;;;;;;18.70;10.23;;;10.80;81.30;;;14.04;50.60;98163.56;5061879;28;20059;-48
2023/04/19 00:08:20;;;;;;;14.63;9.40;;;10.90;81.20;;;14.03;50.66;98159.19;5058691;28;20047;-48
2023/04/19 00:10:48;;;;;;;14.57;9.93;;;10.80;81.10;;;14.03;50.58;98167.22;5058499;28;20048;-47
2023/04/19 00:13:15;;;;;;;13.77;9.80;;;10.90;81.20;;;14.03;50.59;98167.22;5061289;28;20427;-46
2023/04/19 00:15:43;;;;;;;14.40;10.00;;;11.00;81.00;;;14.03;50.72;98164.56;5061541;28;20048;-46
2023/04/19 00:18:10;;;;;;;14.90;10.07;;;11.00;80.80;;;14.02;50.68;98162.91;5060240;28;20654;-48
2023/04/19 00:20:38;;;;;;;14.97;9.93;;;10.90;80.60;;;14.03;50.65;98163.72;5058694;28;20052;-48
2023/04/19 00:23:06;;;;;;;13.67;9.77;;;10.90;80.80;;;14.02;50.58;98162.06;5059948;28;20103;-47
2023/04/19 00:25:33;;;;;;;15.43;10.10;;;10.90;80.80;;;14.00;50.66;98162.25;5061671;28;20057;-46
2023/04/19 00:28:01;;;;;;;13.97;10.57;;;10.90;80.60;;;13.99;50.67;98155.19;5061182;28;20052;-47
2023/04/19 00:30:28;;;;;;;14.13;11.03;;;10.90;80.70;;;14.01;50.68;98158.53;5054270;28;20052;-50
2023/04/19 00:32:57;;;;;;;16.67;10.60;;;10.90;80.80;;;14.01;50.56;98161.22;5058617;28;20498;-46
2023/04/19 00:35:25;;;;;;;15.53;10.90;;;10.80;80.90;;;13.97;50.65;98151.84;5060212;28;20047;-48
2023/04/19 00:37:53;;;;;;;15.47;10.73;;;10.80;80.90;;;13.94;50.75;98150.38;5061903;28;20500;-46
2023/04/19 00:40:20;;;;;;;12.53;9.13;;;10.90;81.00;;;13.93;50.81;98151.34;5058993;28;20041;-48
2023/04/19 00:42:48;;;;;;;14.27;9.23;;;10.90;80.70;;;13.96;50.93;98153.72;5058450;28;20063;-46
2023/04/19 00:45:15;;;;;;;15.63;10.53;;;10.90;81.00;;;13.96;50.83;98147.53;5060068;28;20063;-46
2023/04/19 00:47:43;;;;;;;13.77;9.93;;;11.00;80.80;;;13.92;50.89;98154.19;5065669;28;20049;-50
2023/04/19 00:50:12;;;;;;;15.67;9.53;;;10.90;80.80;;;13.90;50.92;98146.38;5061297;28;20052;-50
2023/04/19 00:52:40;;;;;;;13.83;10.17;;;10.80;81.00;;;13.90;50.87;98149.03;5044024;28;20056;-47
2023/04/19 00:55:09;;;;;;;14.73;9.87;;;10.90;81.10;;;13.86;50.96;98145.03;5059417;28;20068;-49
2023/04/19 00:57:37;;;;;;;14.47;10.20;;;10.90;81.00;;;13.85;50.87;98147.88;5047790;28;20044;-46
2023/04/19 01:00:07;;;;;;;15.20;10.40;;;10.80;80.70;;;13.81;50.91;98142.03;5062383;28;20052;-51
2023/04/19 01:02:35;;;;;;;15.97;9.53;;;10.70;81.20;;;13.79;50.89;98144.88;5060264;28;20331;-50
2023/04/19 01:05:03;;;;;;;16.27;10.50;;;10.80;81.20;;;13.76;51.12;98137.19;5061981;28;20037;-45
2023/04/19 01:07:33;;;;;;;17.17;10.07;;;10.80;80.90;;;13.75;51.24;98138.19;5063546;28;20044;-46
2023/04/19 01:10:02;;;;;;;15.60;10.30;;;10.70;81.30;;;13.76;51.08;98137.19;5063282;28;20424;-48
2023/04/19 01:12:29;;;;;;;16.67;10.37;;;10.70;81.40;;;13.73;51.12;98131.34;5059979;28;20049;-47
2023/04/19 01:14:57;;;;;;;14.27;9.70;;;10.70;81.50;;;13.68;51.36;98123.81;5059278;28;20057;-49
2023/04/19 01:17:25;;;;;;;14.53;10.77;;;10.70;81.40;;;13.70;51.19;98127.13;5059831;28;20045;-46
2023/04/19 01:20:07;;;;;;;16.07;10.27;;;10.70;81.70;;;13.69;51.26;98128.16;5056449;28;20053;-48
2023/04/19 01:22:36;;;;;;;15.77;10.20;;;10.70;81.70;;;13.70;51.23;98129.00;5054478;28;20049;-45
2023/04/19 01:25:06;;;;;;;13.47;10.50;;;10.60;81.70;;;13.71;51.29;98125.31;5059756;28;20388;-48
2023/04/19 01:27:34;;;;;;;14.33;9.87;;;10.70;81.90;;;13.72;51.11;98118.94;5063491;28;20048;-45
2023/04/19 01:30:02;;;;;;;16.90;10.93;;;10.60;81.90;;;13.68;51.17;98122.97;5063321;28;20044;-47
2023/04/19 01:32:29;;;;;;;15.33;9.80;;;10.60;81.90;;;13.64;51.21;98124.31;5061126;28;20037;-49
2023/04/19 01:34:57;;;;;;;16.33;10.67;;;10.60;82.80;;;13.63;51.44;98123.50;5038300;28;20057;-47
2023/04/19 01:37:24;;;;;;;15.23;10.37;;;10.60;81.90;;;13.57;51.41;98100.94;5062817;28;20048;-48
2023/04/19 01:39:52;;;;;;;15.40;10.13;;;10.60;81.80;;;13.57;51.42;98116.13;5064649;28;20048;-46
2023/04/19 01:42:20;;;;;;;13.83;9.63;;;10.60;82.00;;;13.57;51.48;98110.75;5043820;28;20075;-47
2023/04/19 01:44:47;;;;;;;18.43;12.10;;;10.60;82.00;;;13.55;51.49;98102.94;5058993;28;20056;-46
2023/04/19 01:47:15;;;;;;;14.87;10.33;;;10.60;81.80;;;13.53;51.58;98104.94;5060715;28;20053;-48
2023/04/19 01:49:42;;;;;;;16.10;10.23;;;10.60;81.70;;;13.50;51.62;98105.28;5062555;28;20421;-46
2023/04/19 01:52:10;;;;;;;13.47;10.13;;;10.60;81.80;;;13.50;51.56;98101.78;5060893;28;20060;-47
2023/04/19 01:54:37;;;;;;;17.60;11.13;;;10.50;82.10;;;13.50;51.59;98102.59;5058911;28;20057;-46
2023/04/19 01:57:05;;;;;;;13.93;10.10;;;10.60;82.10;;;13.47;51.62;98097.56;5055907;28;20045;-45
2023/04/19 01:59:32;;;;;;;16.80;10.87;;;10.50;82.20;;;13.47;51.58;98102.09;5062814;28;20040;-47
2023/04/19 02:02:00;;;;;;;14.33;11.07;;;10.40;81.60;;;13.42;51.47;98096.44;5062509;28;20048;-48
2023/04/19 02:04:28;;;;;;;16.63;10.60;;;10.30;82.60;;;13.39;51.61;98098.41;5058754;28;20045;-47
2023/04/19 02:06:55;;;;;;;17.90;11.93;;;10.30;82.80;;;13.38;51.69;98091.41;5058571;28;20059;-48
2023/04/19 02:09:23;;;;;;;22.83;10.83;;;10.30;83.20;;;13.40;51.69;98088.56;5063305;28;20059;-46
2023/04/19 02:11:50;;;;;;;15.90;11.10;;;10.30;83.30;;;13.39;51.53;98089.56;5061964;28;20075;-46
2023/04/19 02:14:18;;;;;;;16.00;10.53;;;10.30;83.00;;;13.40;51.56;98091.25;5061720;28;20044;-46
2023/04/19 02:16:45;;;;;;;17.63;11.80;;;10.30;83.30;;;13.38;51.47;98085.22;5058198;28;20425;-45
2023/04/19 02:19:13;;;;;;;20.50;11.93;;;10.30;83.30;;;13.31;51.50;98077.03;5066142;28;20060;-46
2023/04/19 02:21:41;;;;;;;18.87;11.77;;;10.10;83.00;;;13.24;51.65;98084.03;5062204;28;20044;-46
2023/04/19 02:24:08;;;;;;;16.70;10.70;;;10.00;84.10;;;13.22;51.84;98074.50;5061105;28;20048;-46
2023/04/19 02:26:36;;;;;;;18.80;12.87;;;10.00;84.70;;;13.22;51.77;98072.66;5058429;28;20263;-47
2023/04/19 02:29:05;;;;;;;16.30;10.77;;;10.10;85.00;;;13.22;51.99;98069.16;5060131;28;20045;-46
2023/04/19 02:31:34;;;;;;;16.33;11.40;;;10.10;84.30;;;13.17;51.83;98069.66;5062212;28;20056;-47
2023/04/19 02:34:02;;;;;;;16.33;11.13;;;10.10;84.40;;;13.18;52.04;98069.50;5060715;28;20052;-47
2023/04/19 02:36:29;;;;;;;17.83;11.10;;;10.20;84.20;;;13.19;52.20;98068.47;5061928;28;20047;-45
2023/04/19 02:38:58;;;;;;;18.97;12.73;;;10.20;84.00;;;13.18;51.99;98064.16;5063514;28;20049;-47
2023/04/19 02:41:25;;;;;;;19.03;10.93;;;10.10;84.10;;;13.16;52.05;98066.16;5059085;28;20057;-45
2023/04/19 02:43:53;;;;;;;18.63;11.47;;;10.10;84.00;;;13.17;52.03;98072.34;5038279;28;20048;-46
2023/04/19 02:46:20;;;;;;;18.20;13.27;;;10.10;84.30;;;13.16;51.98;98063.50;5060557;28;20421;-45
2023/04/19 02:48:48;;;;;;;17.30;13.67;;;10.10;84.20;;;13.15;51.97;98061.81;5061602;28;20052;-45
2023/04/19 02:51:16;;;;;;;17.80;12.73;;;10.10;84.10;;;13.12;51.90;98055.94;5061752;28;20045;-48
2023/04/19 02:53:44;;;;;;;17.47;11.53;;;10.00;84.40;;;13.12;52.09;98061.28;5066405;28;20522;-46
2023/04/19 02:56:11;;;;;;;15.33;11.40;;;10.00;84.80;;;13.10;52.15;98061.47;5058775;28;20226;-45
2023/04/19 02:58:39;;;;;;;17.27;12.17;;;9.90;84.80;;;13.07;52.11;98060.97;5061450;28;20044;-46
2023/04/19 03:01:07;;;;;;;18.70;12.53;;;10.00;85.30;;;13.01;52.07;98065.16;5061088;28;20437;-46
2023/04/19 03:03:35;;;;;;;20.53;11.70;;;9.90;85.20;;;12.99;52.15;98059.97;5057552;28;20049;-45
2023/04/19 03:06:03;;;;;;;17.10;11.17;;;9.80;85.70;;;13.00;52.42;98068.81;5059254;28;20057;-45
2023/04/19 03:08:31;;;;;;;19.63;11.70;;;9.90;86.00;;;12.99;52.18;98061.81;5057690;28;20044;-46
2023/04/19 03:10:59;;;;;;;16.83;12.00;;;9.90;85.80;;;12.97;52.25;98055.81;5038177;28;20060;-44
2023/04/19 03:13:26;;;;;;;19.33;12.03;;;9.80;86.10;;;12.96;52.32;98062.13;5059804;28;20059;-47
2023/04/19 03:15:54;;;;;;;16.30;11.90;;;9.80;86.40;;;12.97;52.74;98055.81;5060909;28;20053;-46
2023/04/19 03:18:22;;;;;;;17.27;10.67;;;9.80;86.50;;;12.97;52.37;98055.81;5059127;28;20055;-48
2023/04/19 03:20:52;;;;;;;17.63;12.53;;;9.80;86.70;;;12.94;52.14;98059.63;5058191;28;20059;-46
2023/04/19 03:23:20;;;;;;;17.17;11.77;;;9.70;86.90;;;12.92;52.31;98064.31;5059027;28;20057;-46
2023/04/19 03:25:50;;;;;;;18.47;12.27;;;9.80;86.90;;;12.93;52.25;98059.78;5060668;28;20055;-46
2023/04/19 03:28:27;;;;;;;20.23;12.40;;;9.80;86.70;;;12.82;52.33;98057.47;5058253;28;20064;-44
2023/04/19 03:31:15;;;;;;;21.70;13.53;;;9.70;86.50;;;12.74;52.48;98053.75;5054775;28;20064;-44
2023/04/19 03:33:44;;;;;;;16.70;12.17;;;9.60;87.10;;;12.72;52.69;98053.09;5060803;28;20040;-47
2023/04/19 03:36:13;;;;;;;19.23;12.20;;;9.60;87.50;;;12.76;52.79;98048.25;5059685;28;20119;-47
2023/04/19 03:38:43;;;;;;;17.37;11.50;;;9.70;87.70;;;12.76;52.59;98054.44;5056844;28;20066;-46
2023/04/19 03:41:26;;;;;;;17.25;11.88;;;9.70;87.40;;;12.80;52.58;98042.41;5058600;28;20414;-48
2023/04/19 03:44:19;;;;;;;19.13;12.83;;;9.80;86.90;;;12.88;52.58;98040.75;5038897;28;20505;-45
2023/04/19 03:46:47;;;;;;;17.10;11.47;;;9.80;86.60;;;12.85;52.60;98044.56;5057280;28;20049;-45
2023/04/19 03:49:19;;;;;;;17.73;12.23;;;9.80;86.40;;;12.86;52.58;98040.09;5058715;28;20044;-49
2023/04/19 03:51:52;;;;;;;14.67;10.83;;;9.80;86.40;;;12.85;52.67;98049.09;5045255;28;20048;-47
2023/04/19 03:54:20;;;;;;;19.07;11.70;;;9.80;86.40;;;12.81;52.33;98043.25;5059051;28;20053;-44
2023/04/19 03:56:47;;;;;;;17.73;11.10;;;9.90;86.00;;;12.76;52.42;98038.41;5058521;28;20433;-46
2023/04/19 03:59:15;;;;;;;19.43;11.83;;;9.90;85.80;;;12.74;52.42;98036.91;5057351;28;20048;-47
2023/04/19 04:01:43;;;;;;;19.30;12.20;;;9.90;85.50;;;12.73;52.50;98035.22;5057241;28;20112;-45
2023/04/19 04:04:11;;;;;;;16.57;11.10;;;9.80;85.20;;;12.69;52.52;98037.38;5058867;28;20049;-45
2023/04/19 04:06:39;;;;;;;17.43;11.20;;;9.80;85.70;;;12.69;52.59;98033.88;5060423;28;20071;-45
2023/04/19 04:09:07;;;;;;;19.37;12.47;;;9.70;86.00;;;12.71;52.54;98035.38;5060937;28;20509;-45
2023/04/19 04:11:34;;;;;;;18.93;10.97;;;9.70;85.80;;;12.74;52.56;98036.91;5056971;28;20048;-46
2023/04/19 04:14:03;;;;;;;21.43;12.40;;;9.70;86.20;;;12.75;52.76;98033.22;5058748;28;20053;-48
2023/04/19 04:16:34;;;;;;;17.83;11.70;;;9.80;86.10;;;12.77;52.49;98037.38;5059969;28;20441;-46
2023/04/19 04:19:01;;;;;;;18.53;12.20;;;9.80;86.30;;;12.81;52.43;98035.22;5060617;28;20498;-45
2023/04/19 04:21:32;;;;;;;17.47;11.03;;;9.80;86.30;;;12.74;52.70;98037.75;5060963;28;20517;-45
2023/04/19 04:24:03;;;;;;;15.60;10.80;;;9.70;86.50;;;12.71;52.47;98035.38;5044664;28;20045;-45
2023/04/19 04:26:39;;;;;;;16.53;11.23;;;9.70;86.70;;;12.69;52.44;98033.88;5060931;28;20045;-45
2023/04/19 04:29:15;;;;;;;15.20;10.27;;;9.60;86.20;;;12.64;52.45;98044.22;5061525;28;20052;-45
2023/04/19 04:31:44;;;;;;;16.97;11.00;;;9.50;86.60;;;12.58;52.46;98040.38;5064279;28;20540;-45
2023/04/19 04:34:13;;;;;;;18.57;11.93;;;9.60;86.20;;;12.53;52.58;98048.06;5063075;28;20052;-46
2023/04/19 04:36:49;;;;;;;19.83;10.73;;;9.60;85.80;;;12.50;52.16;98041.19;5042014;28;20049;-46
2023/04/19 04:39:18;;;;;;;15.77;10.13;;;9.50;86.30;;;12.46;52.64;98042.50;5059415;28;20045;-45
2023/04/19 04:41:48;;;;;;;19.77;10.90;;;9.50;86.10;;;12.44;52.45;98044.50;5066104;28;20044;-47
2023/04/19 04:44:16;;;;;;;19.20;12.17;;;9.50;86.10;;;12.35;52.77;98041.00;5070903;28;20045;-45
2023/04/19 04:46:45;;;;;;;14.77;10.00;;;9.30;86.50;;;12.35;52.65;98041.00;5041018;28;20045;-45
2023/04/19 04:49:18;;;;;;;16.03;10.33;;;9.40;86.80;;;12.36;52.57;98047.16;5058679;28;20541;-46
2023/04/19 04:51:46;;;;;;;17.77;11.03;;;9.40;86.20;;;12.30;52.67;98042.50;5064019;28;20045;-46
2023/04/19 04:54:14;;;;;;;16.07;10.27;;;9.30;87.40;;;12.30;52.61;98042.50;5062982;28;20047;-48
2023/04/19 04:56:43;;;;;;;13.57;9.70;;;9.30;87.40;;;12.24;53.20;98045.81;5060194;28;20049;-46
2023/04/19 04:59:12;;;;;;;18.70;10.77;;;9.30;87.70;;;12.21;53.39;98047.81;5060047;28;20041;-45
2023/04/19 05:01:43;;;;;;;16.33;11.33;;;9.20;87.70;;;12.25;52.99;98055.47;5059948;28;20045;-45
2023/04/19 05:04:11;;;;;;;15.50;10.90;;;9.30;88.00;;;12.29;52.98;98055.00;5059676;28;20049;-46
2023/04/19 05:06:40;;;;;;;18.23;10.70;;;9.30;88.10;;;12.30;52.98;98051.31;5061560;28;20043;-47
2023/04/19 05:09:10;;;;;;;13.87;10.27;;;9.40;87.70;;;12.34;53.20;98055.34;5060193;28;20040;-46
2023/04/19 05:11:37;;;;;;;16.07;10.60;;;9.40;87.10;;;12.32;53.27;98060.00;5071050;28;20040;-47
2023/04/19 05:14:05;;;;;;;16.97;11.30;;;9.40;87.10;;;12.34;53.02;98059.84;5062723;28;20517;-45
2023/04/19 05:16:33;;;;;;;15.87;10.10;;;9.40;87.60;;;12.41;53.02;98059.03;5060448;28;20049;-50
2023/04/19 05:19:02;;;;;;;19.30;11.20;;;9.50;87.70;;;12.51;53.00;98053.56;5063173;28;20036;-48
2023/04/19 05:21:34;;;;;;;18.17;12.40;;;9.50;87.60;;;12.57;53.02;98058.22;5060576;28;20490;-44
2023/04/19 05:24:04;;;;;;;16.97;11.33;;;9.60;87.10;;;12.61;52.98;98056.91;5059650;28;20494;-45
2023/04/19 05:26:34;;;;;;;18.43;12.43;;;9.60;86.90;;;12.66;52.55;98051.09;5062361;28;20060;-47
2023/04/19 05:29:03;;;;;;;19.47;10.93;;;9.70;86.90;;;12.70;52.66;98054.28;5063151;28;20417;-45
2023/04/19 05:31:53;;;;;;;19.10;13.33;;;9.80;86.50;;;12.70;52.75;98063.13;5051802;28;20041;-48
2023/04/19 05:34:25;;;;;;;14.00;10.53;;;9.90;86.20;;;12.72;52.62;98060.28;5059000;28;20064;-49
2023/04/19 05:36:54;;;;;;;17.40;11.23;;;9.90;85.80;;;12.73;52.56;98070.78;5062852;28;20056;-49
2023/04/19 05:39:22;;;;;;;17.23;11.13;;;9.80;86.00;;;12.75;52.55;98071.44;5062036;28;20040;-48
2023/04/19 05:41:51;;;;;;;18.27;11.70;;;9.90;85.80;;;12.71;52.40;98067.44;5059955;28;20176;-49
2023/04/19 05:44:18;;;;;;;16.83;11.27;;;9.80;85.40;;;12.76;52.47;98069.63;5056816;28;20048;-50
2023/04/19 05:46:46;;;;;;;16.30;11.10;;;9.80;86.10;;;12.76;52.51;98064.28;5062633;28;20093;-46
2023/04/19 05:49:19;;;;;;;15.90;11.18;;;9.70;85.70;;;12.79;52.11;98074.63;5062290;28;20165;-48
2023/04/19 05:52:16;;;;;;;19.03;11.23;;;9.70;85.60;;;12.76;51.98;98066.97;5059007;28;20056;-46
2023/04/19 05:54:50;;;;;;;;;;;9.70;85.50;;;12.82;52.19;98074.31;5062743;28;20051;-48
2023/04/19 05:57:17;;;;;;;16.60;10.33;;;9.70;86.10;;;12.89;52.00;98075.34;5062226;28;20393;-46
2023/04/19 05:59:45;;;;;;;16.10;10.60;;;9.70;86.20;;;12.91;52.24;98073.34;5059332;28;20045;-44
2023/04/19 06:02:16;;;;;;;16.90;12.27;;;9.80;85.70;;;12.93;52.04;98074.00;5056448;28;20045;-46
2023/04/19 06:04:44;;;;;;;18.53;12.07;;;9.80;85.40;;;12.91;52.11;98070.66;5061918;28;20052;-50
2023/04/19 06:07:13;;;;;;;21.37;14.17;;;9.90;84.90;;;12.95;52.10;98085.34;5062488;28;20099;-47
2023/04/19 06:09:58;;;;;;;15.27;11.27;;;10.00;84.60;;;12.98;52.00;98070.81;5053019;28;20406;-43
2023/04/19 06:12:26;;;;;;;16.67;11.20;;;10.00;84.20;;;12.94;51.99;98072.16;5061316;28;20044;-46
2023/04/19 06:14:53;;;;;;;15.60;10.03;;;9.90;83.70;;;12.98;51.77;98065.47;5063371;28;20040;-48
2023/04/19 06:17:23;;;;;;;17.40;11.87;;;9.90;84.30;;;13.02;51.78;98069.47;5061333;28;20036;-45
2023/04/19 06:19:52;;;;;;;15.13;10.87;;;10.10;84.50;;;13.02;51.81;98066.81;5060274;28;20303;-47
2023/04/19 06:22:20;;;;;;;18.13;10.97;;;10.00;83.30;;;13.05;51.52;98063.00;5060482;28;20048;-46
2023/04/19 06:24:48;;;;;;;15.37;10.60;;;10.00;83.60;;;13.08;51.68;98063.47;5063084;28;20040;-47
2023/04/19 06:27:16;;;;;;;16.83;11.93;;;10.00;83.30;;;13.12;51.56;98063.97;5063663;28;20043;-45
2023/04/19 06:29:43;;;;;;;18.50;10.73;;;10.00;83.80;;;13.11;51.44;98060.47;5051262;28;20409;-50
2023/04/19 06:32:11;;;;;;;15.57;11.23;;;10.00;83.80;;;13.07;51.51;98063.66;5059506;28;20047;-46
2023/04/19 06:34:39;;;;;;;14.93;9.77;;;10.00;83.10;;;12.97;51.48;98069.16;5060319;28;20052;-45
2023/04/19 06:37:06;;;;;;;17.17;10.80;;;10.00;83.60;;;12.90;51.54;98066.31;5059999;28;20036;-45
2023/04/19 06:39:34;;;;;;;18.90;11.53;;;9.90;83.60;;;12.77;51.66;98074.78;5062074;28;20052;-47
2023/04/19 06:42:02;;;;;;;19.90;11.97;;;9.90;83.60;;;12.79;51.92;98072.81;5062885;28;20036;-45
2023/04/19 06:44:30;;;;;;;17.00;11.80;;;9.80;84.40;;;12.91;52.24;98073.34;5061461;28;20470;-45
2023/04/19 06:46:57;;;;;;;16.07;11.23;;;10.00;84.60;;;12.99;51.83;98076.00;5059682;28;20041;-48
2023/04/19 06:49:25;;;;;;;14.97;10.37;;;10.10;84.10;;;13.05;51.81;98068.34;5060669;28;20517;-46
2023/04/19 06:51:53;;;;;;;19.87;10.17;;;10.20;83.40;;;13.12;51.51;98072.00;5061664;28;20040;-47
2023/04/19 06:54:21;;;;;;;17.83;11.43;;;10.30;83.00;;;13.18;51.37;98077.53;5062779;28;20044;-47
2023/04/19 06:56:49;;;;;;;15.07;10.73;;;10.40;82.50;;;13.20;51.41;98075.50;5059426;28;20052;-46
2023/04/19 06:59:19;;;;;;;16.00;10.77;;;10.40;81.80;;;13.13;51.39;98074.50;5059630;28;20517;-45
2023/04/19 07:01:47;;;;;;;15.70;9.97;;;10.30;81.40;;;13.13;51.21;98069.16;5051612;28;20509;-48
2023/04/19 07:04:16;;;;;;;15.20;10.30;;;10.20;81.60;;;13.02;51.44;98068.66;5059674;28;20044;-45
2023/04/19 07:06:48;;;;;;;13.67;9.77;;;10.00;82.80;;;13.07;51.58;98069.81;5062617;28;20265;-46
2023/04/19 07:09:16;;;;;;;16.63;11.93;;;10.10;84.10;;;13.17;51.72;98059.78;5063121;28;20053;-46
2023/04/19 07:11:47;;;;;;;18.60;12.30;;;10.20;83.40;;;13.23;51.66;98066.31;5051293;28;20044;-48
2023/04/19 07:14:15;;;;;;;18.47;11.80;;;10.40;83.10;;;13.35;51.63;98062.31;5059134;28;20041;-49
2023/04/19 07:16:43;;;;;;;18.03;11.57;;;10.50;82.40;;;13.48;51.21;98060.97;5062198;28;20045;-47
2023/04/19 07:19:11;;;;;;;15.60;11.03;;;10.70;81.70;;;13.53;51.22;98059.47;5062741;28;20041;-47
2023/04/19 07:21:39;;;;;;;14.20;9.50;;;10.80;81.20;;;13.61;51.27;98058.63;5060136;28;20045;-49
2023/04/19 07:24:06;;;;;;;15.37;10.63;;;10.80;80.50;;;13.71;50.70;98055.75;5059285;28;20055;-47
2023/04/19 07:26:34;;;;;;;13.13;9.60;;;10.90;79.80;;;13.77;50.46;98057.75;5064341;28;20494;-46
2023/04/19 07:29:01;;;;;;;13.93;9.73;;;10.90;80.30;;;13.77;50.48;98055.91;5052728;28;20104;-49
2023/04/19 07:31:29;;;;;;;13.37;9.70;;;10.90;79.50;;;13.78;50.51;98046.88;5050145;28;20498;-46
2023/04/19 07:33:56;;;;;;;13.40;10.35;;;11.00;79.30;;;13.85;50.46;98054.22;5055941;28;20040;-46
2023/04/19 07:36:24;;;;;;;14.00;10.80;;;11.10;79.40;;;13.84;50.62;98048.03;5060900;28;20413;-48
2023/04/19 07:38:52;;;;;;;13.33;9.40;;;11.10;79.00;;;13.96;50.55;98046.63;5059438;28;20037;-48
2023/04/19 07:41:19;;;;;;;12.27;9.53;;;11.10;78.70;;;13.97;50.22;98047.47;5059175;28;20044;-48
2023/04/19 07:43:47;;;;;;;14.43;10.13;;;11.10;78.70;;;13.99;50.21;98046.28;5062389;28;20413;-46
2023/04/19 07:46:15;;;;;;;16.43;9.63;;;11.10;78.80;;;13.96;50.08;98045.81;5062339;28;20051;-47
2023/04/19 07:48:42;;;;;;;14.57;10.17;;;11.00;79.00;;;13.94;50.29;98040.63;5059596;28;20053;-49
2023/04/19 07:51:12;;;;;;;13.07;8.57;;;11.00;79.10;;;13.88;50.20;98035.13;5051094;28;20045;-49
2023/04/19 07:53:41;;;;;;;13.53;9.50;;;11.00;79.10;;;13.88;50.36;98035.13;5044393;28;20040;-46
2023/04/19 07:56:10;;;;;;;14.43;8.80;;;11.00;79.30;;;13.89;50.14;98034.13;5039703;28;20060;-49
2023/04/19 07:58:40;;;;;;;14.83;9.23;;;10.90;78.90;;;13.91;50.13;98032.09;5038800;28;20051;-47
2023/04/19 08:01:07;;;;;;;14.83;9.20;;;10.90;78.90;;;13.93;50.17;98030.91;5046271;28;20386;-49
2023/04/19 08:03:36;;;;;;;15.90;9.10;;;11.00;79.10;;;13.96;50.09;98029.75;5046976;28;20037;-47
2023/04/19 08:06:08;;;;;;;15.47;9.70;;;11.10;78.10;;;13.97;50.13;98026.88;5048507;28;20048;-45
2023/04/19 08:08:36;;;;;;;15.00;8.70;;;11.00;78.50;;;14.02;50.11;98026.38;5045736;28;20049;-46
2023/04/19 08:11:05;;;;;;;11.60;7.80;;;11.10;79.00;;;14.08;50.25;98025.69;5048732;28;20045;-47
2023/04/19 08:13:32;;;;;;;11.30;8.07;;;11.20;79.00;;;14.17;50.13;98023.78;5045937;28;20048;-48
2023/04/19 08:16:00;;;;;;;12.83;7.87;;;11.30;78.50;;;14.30;49.74;98031.25;5048637;28;20045;-48
2023/04/19 08:18:32;;;;;;;12.90;8.93;;;11.40;77.20;;;14.42;49.59;98024.50;5048306;28;20060;-48
2023/04/19 08:21:00;;;;;;;12.27;8.30;;;11.50;76.50;;;14.56;49.00;98029.13;5048615;28;20047;-50
2023/04/19 08:23:28;;;;;;;13.85;8.27;;;11.70;75.90;;;14.65;48.72;98027.22;5046496;28;20045;-48
2023/04/19 08:26:07;;;;;;;11.50;8.25;;;11.80;74.90;;;14.74;48.49;98017.28;5049184;28;20386;-47
2023/04/19 08:28:35;;;;;;;11.88;7.88;;;11.80;74.00;;;14.83;48.42;98028.78;5048538;28;20051;-46
2023/04/19 08:31:06;;;;;;;11.82;8.48;;;11.90;74.30;;;14.94;48.32;98020.31;5049114;28;20040;-46
2023/04/19 08:33:34;;;;;;;13.60;8.20;;;12.00;74.10;;;14.97;48.18;98033.38;5047104;28;20049;-47
2023/04/19 08:36:01;;;;;;;14.95;10.02;;;12.10;72.80;;;14.84;48.17;98025.94;5045049;28;20052;-48
2023/04/19 08:38:29;;;;;;;12.32;8.05;;;12.00;73.20;;;14.86;48.34;98017.72;5033684;28;20064;-46
2023/04/19 08:40:56;;;;;;;12.25;8.23;;;12.00;74.10;;;14.85;48.60;98027.59;5033645;28;20045;-47
2023/04/19 08:43:32;;;;;;;13.10;8.60;;;12.00;74.40;;;14.91;48.67;98026.06;5033449;28;20049;-49
2023/04/19 08:46:01;;;;;;;12.38;9.05;;;12.20;74.40;;;14.91;48.61;98021.53;5032578;28;20514;-48
2023/04/19 08:48:29;;;;;;;17.48;9.60;;;12.20;74.50;;;14.79;48.63;98014.06;5032246;28;20041;-46
2023/04/19 08:50:58;;;;;;;14.82;9.05;;;12.00;74.70;;;14.85;48.88;98019.56;5017528;28;20064;-46
2023/04/19 08:53:35;;;;;;;14.65;9.35;;;12.10;75.40;;;14.83;48.65;98016.22;5046793;28;20045;-48
2023/04/19 08:56:06;;;;;;;15.35;8.68;;;12.00;75.20;;;14.90;48.87;98016.34;5042871;28;20049;-47
2023/04/19 08:58:47;;;;;;;;;;;12.00;75.60;;;15.11;48.67;98018.34;5048525;28;20064;-46
2023/04/19 09:01:17;;;;;;;12.90;8.77;;;12.20;75.00;;;15.13;48.39;98009.09;5046608;28;19933;-46
2023/04/19 09:03:49;;;;;;;13.02;9.40;;;12.30;74.70;;;15.10;48.79;98011.31;5033751;28;20053;-45
2023/04/19 09:06:38;;;;;;;15.25;9.38;;;12.30;74.90;;;15.10;48.54;98006.78;5038917;28;20057;-47
2023/04/19 09:09:29;;;;;;;12.00;9.10;;;12.30;74.10;;;15.19;48.72;98015.59;5041935;28;20049;-45
2023/04/19 09:12:00;;;;;;;12.75;9.73;;;12.30;74.20;;;15.28;48.49;98009.13;5039544;28;20064;-50
2023/04/19 09:14:28;;;;;;;13.30;9.07;;;12.40;74.40;;;15.31;48.44;98007.94;5038739;28;20062;-45
2023/04/19 09:17:15;;;;;;;12.90;8.80;;;12.50;74.30;;;15.41;48.41;98002.28;5038346;28;20084;-49
2023/04/19 09:19:48;;;;;;;14.82;9.55;;;12.60;73.20;;;15.57;48.19;97999.47;5037876;28;20486;-45
2023/04/19 09:22:17;;;;;;;14.20;10.03;;;12.60;73.40;;;15.68;47.47;97995.47;5038830;28;20391;-47
2023/04/19 09:24:45;;;;;;;12.85;9.35;;;12.60;70.80;;;15.69;47.39;97997.97;5036309;28;20048;-46
2023/04/19 09:27:35;;;;;;;12.20;9.40;;;12.70;72.80;;;15.68;47.19;97993.63;5035641;28;20518;-46
2023/04/19 09:30:05;;;;;;;13.75;9.32;;;12.60;72.40;;;15.61;47.24;97992.72;5039614;28;20040;-49
2023/04/19 09:32:47;;;;;;;12.80;8.82;;;12.60;72.30;;;15.60;47.16;97985.66;5030071;28;20041;-49
2023/04/19 09:35:15;;;;;;;15.20;10.87;;;12.60;71.30;;;15.71;47.23;97981.69;5038276;28;20040;-46
2023/04/19 09:37:58;;;;;;;13.23;10.20;;;12.70;72.70;;;15.85;46.90;97985.41;5037513;28;20044;-47
2023/04/19 09:40:33;;;;;;;15.13;10.60;;;12.80;70.70;;;15.89;46.58;97973.28;5036729;28;20507;-46
2023/04/19 09:43:02;;;;;;;15.52;11.00;;;12.90;70.80;;;15.93;46.64;97971.88;5059364;28;20052;-47
2023/04/19 09:45:50;;;;;;;13.70;10.02;;;13.00;71.00;;;15.99;46.81;97973.81;5063809;28;20032;-47
2023/04/19 09:48:18;;;;;;;14.23;10.13;;;13.10;71.10;;;16.00;46.50;97970.13;5064500;28;20037;-47
2023/04/19 09:50:55;;;;;;;20.20;13.80;;;13.20;70.00;;;15.99;46.53;97963.06;5062074;28;20040;-44
2023/04/19 09:53:33;;;;;;;12.95;9.43;;;13.30;68.90;;;16.07;46.43;97959.44;5060746;28;20071;-47
2023/04/19 09:56:01;;;;;;;13.43;8.88;;;13.30;69.30;;;16.21;46.32;97963.13;5062427;28;20056;-47
2023/04/19 09:58:31;;;;;;;13.48;9.82;;;13.40;69.00;;;16.34;45.98;97958.75;5064046;28;20036;-47
2023/04/19 10:01:18;;;;;;;15.93;10.07;;;13.50;68.90;;;16.45;45.97;97952.00;5060797;28;20037;-45
2023/04/19 10:03:49;;;;;;;12.10;8.80;;;13.60;68.40;;;16.54;45.92;97952.75;5062958;28;20410;-45
2023/04/19 10:06:19;;;;;;;11.63;7.70;;;13.70;68.60;;;16.64;45.62;97947.88;5063730;28;20497;-47
2023/04/19 10:08:52;;;;;;;11.55;7.93;;;13.80;68.30;;;16.71;45.31;97954.16;5060052;28;20163;-47
2023/04/19 10:11:30;;;;;;;10.73;8.52;;;13.80;67.60;;;16.72;45.17;97946.91;5059231;28;20037;-46
2023/04/19 10:14:00;;;;;;;11.55;8.27;;;13.80;65.20;;;16.69;44.62;97950.81;5052244;28;20060;-47
2023/04/19 10:16:29;;;;;;;10.68;8.63;;;13.80;66.00;;;16.62;44.54;97943.72;5060310;28;20037;-44
2023/04/19 10:18:57;;;;;;;8.82;7.32;;;13.70;66.20;;;16.52;44.76;97947.56;5051574;28;20502;-45
2023/04/19 10:21:27;;;;;;;11.07;8.10;;;13.70;66.30;;;16.52;44.73;97939.50;5060361;28;20037;-49